Date,TemperatureHighF,TemperatureAvgF,TemperatureLowF,DewpointHighF,DewpointAvgF,DewpointLowF,HumidityHigh,HumidityAvg,HumidityLow,PressureMaxIn,PressureMinIn,WindSpeedMaxMPH,WindSpeedAvgMPH,GustSpeedMaxMPH,PrecipitationSumIn
2013-1-1,34.7,29.4,15.6,25.7,14.6,1.8,74,56,38,29.92,29.68,26,6,26,0.00
2013-1-2,28.0,17.2,7.3,18.4,5.5,-7.4,78,60,51,30.10,29.88,18,5,18,0.00
2013-1-3,24.8,12.2,1.0,9.2,-3.9,-16.4,69,50,18,30.12,29.96,12,3,12,0.00
2013-1-4,37.8,27.4,14.5,23.2,18.1,7.4,87,69,51,29.97,29.79,19,4,19,0.00
2013-1-5,41.2,32.9,23.0,24.1,17.7,10.9,72,56,32,30.25,29.82,21,4,21,0.00
2013-1-6,41.4,31.3,24.1,27.9,23.9,15.5,90,75,55,30.21,29.93,12,2,12,0.00
2013-1-7,36.7,30.6,24.1,28.2,20.4,11.9,88,68,41,30.39,29.94,15,3,15,0.00
2013-1-8,44.2,32.3,21.7,26.6,23.4,17.5,88,72,45,30.35,30.24,14,3,14,0.00
2013-1-9,43.0,35.0,24.8,34.5,26.6,21.2,87,72,49,30.39,29.98,19,3,19,0.00
2013-1-10,45.9,40.0,30.4,26.5,21.4,16.4,71,49,33,30.53,30.01,28,7,28,0.00
2013-1-11,39.4,33.2,27.0,34.6,26.3,21.3,96,76,62,30.53,30.21,5,1,5,0.11
2013-1-12,40.6,37.5,34.5,40.4,37.2,34.3,99,99,96,30.21,30.11,4,1,4,0.01
2013-1-13,49.1,43.7,38.5,48.7,43.5,38.2,99,99,99,30.14,29.97,11,2,11,0.01
2013-1-14,60.8,49.4,39.2,52.7,41.2,25.3,99,77,44,30.24,29.84,15,4,15,0.00
2013-1-15,40.8,35.8,30.6,27.0,24.1,22.0,77,63,49,30.31,30.21,7,2,8,0.00
2013-1-16,32.9,31.0,28.0,32.2,28.7,23.3,99,91,72,30.24,29.80,2,0,2,0.00
2013-1-17,40.8,32.0,25.5,34.0,25.6,8.3,99,79,46,30.09,29.81,16,3,16,0.37
2013-1-18,27.1,19.3,14.0,9.1,-1.7,-13.1,59,41,22,30.42,30.05,21,5,21,0.00
2013-1-19,46.4,34.7,18.5,31.0,20.2,6.1,75,57,37,30.35,29.85,26,6,26,0.00
2013-1-20,51.8,38.9,26.4,31.9,23.0,7.6,76,56,26,29.91,29.52,29,8,29,0.00
2013-1-21,27.7,23.0,17.8,19.2,8.4,0.1,89,56,38,30.08,29.78,21,4,21,0.00
2013-1-22,23.9,18.2,10.2,19.3,6.5,-5.2,95,63,34,30.06,29.74,17,4,17,0.00
2013-1-23,14.4,8.6,3.0,-2.2,-12.2,-22.6,63,40,20,30.12,30.03,21,5,21,0.00
2013-1-24,18.0,8.5,-0.9,-9.7,-16.2,-24.4,58,35,16,30.21,30.03,28,7,28,0.00
2013-1-25,23.7,14.6,5.9,3.6,-14.8,-29.4,55,29,12,30.29,30.05,18,5,18,0.00
2013-1-26,23.5,15.6,9.1,8.4,-3.5,-20.7,87,50,17,30.22,29.99,18,5,18,0.00
2013-1-27,29.8,19.4,12.4,0.8,-6.8,-19.9,59,36,15,30.45,30.20,20,6,20,0.00
2013-1-28,29.7,23.1,17.4,23.3,9.0,-4.4,95,59,27,30.43,30.01,8,1,8,0.00
2013-1-29,34.3,28.7,22.8,31.5,26.6,22.1,98,92,79,30.19,30.02,4,1,4,0.05
2013-1-30,58.3,45.1,32.0,57.3,44.7,31.5,99,98,94,30.15,29.44,24,4,24,0.09
2013-1-31,59.5,58.5,56.7,58.9,57.9,56.4,99,98,96,29.43,29.26,21,10,21,0.04
2013-2-5,59.2,25.2,24.1,58.9,18.3,14.5,99,75,64,29.96,29.26,14,2,16,0.52
2013-2-6,36.9,28.3,21.0,25.8,15.9,0.4,95,65,32,30.29,29.91,15,4,15,0.01
2013-2-7,28.2,21.9,14.4,3.6,-1.3,-6.5,54,38,24,30.52,30.29,13,2,13,0.00
2013-2-8,23.9,20.9,16.0,20.2,16.4,3.6,97,84,42,30.48,29.65,24,6,24,0.00
2013-2-9,20.1,17.1,13.1,18.8,13.6,1.8,97,87,60,30.19,29.60,30,10,30,0.00
2013-2-10,40.3,22.9,7.3,5.6,-1.6,-19.3,68,40,10,30.38,30.19,15,3,15,0.00
2013-2-11,32.5,27.4,21.0,32.1,20.0,2.3,99,76,44,30.33,29.60,6,1,6,0.26
2013-2-12,43.7,37.0,31.6,34.5,28.8,25.3,99,74,53,29.87,29.59,21,5,21,0.02
2013-2-13,43.5,34.4,25.5,26.0,22.3,20.2,82,63,43,29.86,29.70,9,2,9,0.00
2013-2-14,45.1,34.2,25.9,22.9,20.4,16.0,78,60,34,29.98,29.69,13,2,13,0.00
2013-2-15,52.5,38.3,26.8,32.9,27.8,20.9,97,69,44,29.98,29.88,18,4,18,0.00
2013-2-16,39.6,34.2,27.7,32.9,25.6,14.4,99,73,52,29.95,29.72,14,3,14,0.04
2013-2-17,27.7,20.2,15.3,17.4,6.7,-3.7,92,59,37,29.73,29.38,33,12,33,0.00
2013-2-18,30.7,21.3,12.9,0.4,-6.4,-21.1,50,34,13,30.14,29.67,30,10,30,0.00
2013-2-19,46.8,35.1,19.6,41.0,19.0,-0.2,99,55,35,30.16,29.57,13,3,13,0.17
2013-2-20,39.0,31.3,25.0,38.8,18.9,7.3,99,63,36,29.77,29.53,23,8,23,0.01
2013-2-21,32.0,25.9,22.5,14.9,11.0,6.7,69,54,39,30.20,29.75,25,8,25,0.00
2013-2-22,42.4,31.1,20.8,23.8,18.5,13.5,84,62,35,30.39,30.20,11,3,11,0.00
2013-2-23,39.4,33.4,27.7,32.0,27.7,21.4,98,80,65,30.33,29.92,8,1,8,0.00
2013-2-24,34.2,32.5,29.8,33.7,32.3,29.6,99,99,98,29.93,29.71,11,1,11,0.06
2013-2-25,41.2,33.3,28.0,34.7,31.2,27.8,99,92,70,30.24,29.90,5,0,5,0.33
2013-2-26,46.2,35.5,29.3,39.0,29.8,24.9,99,82,56,30.34,30.17,8,1,8,0.17
2013-2-27,40.3,36.6,34.2,40.0,35.6,29.2,99,96,81,30.17,29.57,16,5,16,1.05
2013-2-28,48.4,37.9,32.5,37.2,34.3,32.3,99,88,62,29.63,29.53,8,2,8,0.01
2013-3-1,40.6,36.5,31.1,34.9,29.3,26.0,99,77,60,29.68,29.53,14,3,14,0.00
2013-3-2,42.6,36.2,29.8,28.7,25.9,23.3,80,67,55,29.68,29.62,13,4,13,0.00
2013-3-3,40.3,34.3,29.7,30.9,27.0,23.9,86,75,66,29.65,29.56,13,4,13,0.00
2013-3-4,39.2,33.1,28.6,26.7,22.5,19.2,80,66,49,29.75,29.58,21,8,21,0.00
2013-3-5,45.1,36.0,29.5,31.8,25.5,21.0,89,67,48,30.08,29.74,16,4,17,0.00
2013-3-6,39.2,35.1,32.2,35.7,32.9,29.4,99,92,76,30.12,30.05,19,6,19,0.09
2013-3-7,34.0,31.4,29.5,31.8,29.6,26.3,99,93,83,30.10,30.00,17,4,17,0.08
2013-3-8,40.6,32.5,28.8,34.1,28.3,22.4,99,86,57,30.16,29.96,11,1,11,0.09
2013-3-9,54.0,36.6,25.9,26.4,21.3,11.5,91,60,22,30.36,30.15,13,2,13,0.11
2013-3-10,49.1,35.1,24.4,33.3,28.4,23.9,98,79,48,30.42,30.30,6,2,8,0.19
2013-3-11,52.3,41.3,32.4,39.6,33.4,28.5,95,77,42,30.33,30.14,14,4,14,0.00
2013-3-12,53.8,47.6,40.3,52.4,46.8,39.0,99,97,87,30.15,29.71,17,4,17,0.28
2013-3-13,51.6,42.7,33.3,50.4,28.4,13.4,99,62,27,29.78,29.70,16,5,16,0.00
2013-3-14,36.1,31.3,21.0,23.6,14.6,3.9,71,52,34,29.80,29.69,21,6,21,0.00
2013-3-15,41.2,28.6,17.6,29.3,8.7,-11.0,89,48,15,29.83,29.59,22,6,22,0.00
2013-3-16,38.7,32.1,26.1,26.0,9.6,-3.7,75,43,19,29.86,29.63,14,4,14,0.00
2013-3-17,36.5,28.8,21.6,13.5,3.6,-11.5,68,39,15,30.29,29.85,19,5,19,0.00
2013-3-18,39.9,27.4,15.3,24.9,1.5,-21.1,87,39,11,30.43,30.21,8,3,8,0.00
2013-3-19,34.7,30.9,25.5,33.8,30.2,24.2,99,97,87,30.21,29.61,12,1,12,0.00
2013-3-20,38.1,29.6,22.8,24.5,21.2,17.2,97,73,47,29.78,29.67,22,3,22,0.04
2013-3-21,40.8,29.8,20.5,26.8,17.8,5.9,94,66,28,29.78,29.57,8,2,8,0.11
2013-3-22,41.7,32.4,25.9,24.7,16.8,7.7,95,56,30,29.70,29.57,19,5,19,0.00
2013-3-23,45.3,34.1,24.1,21.7,15.2,4.8,82,51,22,29.75,29.59,24,8,24,0.00
2013-3-24,48.6,38.0,31.3,26.4,18.9,13.5,74,49,28,29.78,29.70,18,5,18,0.00
2013-3-25,45.0,36.3,28.2,31.6,27.5,22.0,79,71,56,29.75,29.50,16,4,16,0.00
2013-3-26,52.9,40.5,33.6,28.1,19.7,-1.0,75,49,14,29.75,29.52,13,4,13,0.00
2013-3-27,54.9,41.8,28.8,31.4,18.2,4.8,72,44,18,29.85,29.71,19,5,19,0.00
2013-3-28,50.2,41.8,34.5,35.7,31.5,23.4,98,70,39,29.99,29.85,11,3,11,0.01
2013-3-29,56.1,45.1,35.4,33.6,28.4,15.5,79,56,24,30.02,29.93,14,3,14,0.00
2013-3-30,57.7,45.9,35.8,32.2,12.0,-11.9,80,39,10,30.07,29.97,16,4,16,0.00
2013-3-31,61.0,45.8,30.0,38.7,15.8,-5.2,82,39,10,30.09,29.71,19,4,19,0.05
2013-4-1,61.5,45.9,33.6,43.4,32.1,-5.5,99,66,19,29.75,29.47,25,7,25,0.22
2013-4-2,40.5,33.4,27.5,10.5,4.3,-8.7,47,32,16,29.90,29.75,28,9,28,0.00
2013-4-3,46.8,36.0,28.0,11.6,0.8,-16.4,46,29,10,30.12,29.88,27,9,27,0.00
2013-4-4,57.7,41.6,27.0,19.0,2.8,-14.7,55,28,10,30.27,30.00,17,5,17,0.00
2013-4-5,61.7,45.7,35.8,27.7,17.1,-5.6,70,41,10,30.01,29.61,20,6,20,0.00
2013-4-6,48.9,37.1,29.8,19.8,-4.2,-20.6,54,25,10,30.31,29.86,23,6,23,0.00
2013-4-7,57.6,42.5,26.6,38.3,17.1,-4.5,78,41,12,30.31,29.96,30,6,30,0.00
2013-4-8,69.8,51.9,40.3,43.6,33.8,11.2,96,60,14,30.07,29.92,15,3,15,0.00
2013-4-9,70.2,55.5,44.4,50.2,40.1,31.2,95,62,28,30.06,29.84,20,4,20,0.04
2013-4-10,63.0,51.3,45.0,48.7,45.7,41.5,99,83,55,30.01,29.84,10,2,10,0.27
2013-4-11,52.9,47.3,44.2,47.8,39.9,18.9,99,80,35,30.07,29.81,11,3,11,0.06
2013-4-18,63.5,52.7,39.9,31.4,24.7,16.7,60,36,19,30.40,30.23,11,4,11,0.48
2013-4-19,74.7,60.9,50.7,62.6,52.0,32.2,99,74,44,30.18,29.69,14,7,14,0.00
2013-4-20,67.3,56.0,46.8,63.3,43.9,22.5,99,69,28,30.03,29.59,11,7,11,0.33
2013-4-21,58.3,46.5,32.4,27.9,11.7,-10.9,72,32,10,30.66,30.14,12,4,12,0.00
2013-4-22,54.7,42.7,31.1,33.0,26.8,12.0,90,59,22,30.74,30.58,14,3,14,0.00
2013-4-23,41.0,38.6,35.2,40.7,36.5,28.6,99,92,75,30.58,30.11,14,4,14,0.02
2013-4-24,80.1,57.2,40.5,49.4,39.3,6.7,99,65,10,30.11,29.75,17,6,17,0.01
2013-4-25,66.9,55.3,46.4,52.9,27.4,-3.7,97,46,10,30.25,29.79,18,5,18,0.02
2013-4-26,64.8,51.1,37.9,35.7,27.5,19.9,69,45,24,30.41,30.25,10,2,10,0.00
2013-4-27,68.5,52.6,37.8,37.4,30.5,15.9,90,51,18,30.40,30.26,11,2,11,0.00
2013-4-28,71.8,55.5,39.6,40.5,30.5,10.1,90,48,13,30.32,30.19,13,3,13,0.00
2013-4-29,71.6,57.9,44.8,45.4,28.7,7.2,82,41,12,30.25,30.15,14,4,14,0.00
2013-4-30,73.9,58.6,47.5,29.5,15.0,-5.3,49,26,10,30.35,30.22,8,2,8,0.00
2013-5-1,73.6,56.9,40.1,34.7,23.3,2.2,74,37,10,30.45,30.34,8,2,8,0.00
2013-5-2,82.2,57.4,45.1,42.0,33.2,4.6,80,49,10,30.48,30.32,11,2,11,0.00
2013-5-3,64.4,51.5,40.3,42.7,38.9,35.7,91,65,43,30.51,30.36,14,3,14,0.00
2013-5-4,61.5,54.6,41.0,45.5,40.8,38.4,94,64,48,30.36,30.31,11,4,11,0.00
2013-5-5,65.1,56.9,39.2,41.0,37.2,30.6,99,52,31,30.33,30.22,10,4,10,0.00
2013-5-6,74.5,54.2,37.4,48.0,39.9,18.8,98,68,19,30.27,30.12,11,2,11,0.00
2013-5-7,79.9,64.5,47.3,56.1,48.1,33.0,97,64,24,30.16,30.06,13,3,13,0.00
2013-5-8,77.4,63.6,54.0,63.6,58.1,53.3,99,84,50,30.19,30.02,8,2,8,0.07
2013-5-9,69.3,60.3,57.0,63.6,58.7,56.7,99,95,72,30.03,29.86,5,1,5,0.72
2013-5-10,80.1,65.3,53.2,61.0,56.2,51.2,99,77,41,29.94,29.87,6,2,6,0.00
2013-5-11,70.7,63.9,58.5,62.3,59.4,54.3,99,86,72,29.89,29.67,16,4,16,0.18
2013-5-12,70.5,60.5,47.7,61.2,49.6,23.7,99,73,33,29.79,29.54,17,3,17,0.00
2013-5-13,57.6,48.2,39.2,34.1,27.9,19.2,78,49,27,30.01,29.78,15,3,15,0.00
2013-5-14,58.5,48.6,37.4,35.1,27.7,16.8,79,50,23,30.03,29.94,14,3,14,0.00
2013-5-15,67.5,53.0,38.5,52.1,37.1,18.8,93,61,19,30.03,29.65,23,3,23,0.00
2013-5-16,80.4,66.5,51.1,52.1,30.5,6.0,98,43,10,29.80,29.61,24,5,24,0.00
2013-5-17,69.8,58.8,50.5,42.4,37.1,25.7,69,49,24,30.19,29.80,14,4,14,0.00
2013-5-18,72.7,59.1,45.3,47.3,38.9,17.4,82,55,17,30.29,30.19,11,2,11,0.00
2013-5-19,73.0,57.2,47.7,55.1,50.4,5.9,99,81,40,30.33,30.19,99,2,99,0.20
2013-5-20,81.1,67.5,55.2,64.0,60.1,54.9,99,80,54,30.19,29.89,10,2,10,0.00
2013-5-21,78.6,61.7,50.4,67.2,58.3,49.5,99,90,66,30.01,29.86,12,2,12,0.00
2013-5-22,68.5,56.4,50.0,62.7,54.7,49.7,99,94,81,30.07,29.86,9,1,10,0.22
2013-5-23,78.6,63.4,53.2,70.7,61.4,53.0,99,94,79,29.91,29.77,16,3,16,0.27
2013-5-24,73.0,62.4,47.7,68.7,60.1,47.4,99,93,74,29.81,29.63,14,3,14,0.52
2013-5-25,50.4,46.1,40.1,50.1,45.8,38.8,99,99,95,29.81,29.69,17,6,17,0.46
2013-5-26,56.3,47.7,38.8,40.9,38.7,35.1,99,74,47,30.07,29.68,21,6,21,0.06
2013-5-27,73.6,57.3,41.5,43.2,34.6,16.6,93,53,17,30.15,30.05,18,3,18,0.00
2013-5-28,74.5,60.9,45.5,50.9,43.2,31.1,90,58,25,30.22,30.13,8,2,8,0.00
2013-5-29,70.9,62.5,57.6,66.1,60.3,50.3,99,93,77,30.16,29.95,7,1,7,0.61
2013-5-30,98.8,75.0,62.8,69.3,64.3,59.2,99,74,41,30.06,29.97,12,2,12,0.01
2013-5-31,93.9,80.9,66.9,70.6,64.0,55.2,90,62,33,30.07,29.90,11,2,11,0.00
2013-6-1,92.3,81.1,67.3,68.9,63.8,52.2,88,61,31,29.95,29.82,14,3,14,0.00
2013-6-2,90.0,78.1,68.4,70.3,66.7,58.2,96,72,38,29.85,29.68,23,4,23,0.04
2013-6-3,81.3,68.8,59.7,69.2,62.4,43.8,99,83,49,29.83,29.73,12,2,12,0.41
2013-6-4,73.0,60.8,48.9,45.9,42.7,38.4,77,55,33,30.08,29.80,13,4,13,0.00
2013-6-5,78.1,63.0,50.5,51.3,45.8,33.0,85,58,27,30.18,30.06,10,2,10,0.00
2013-6-6,75.4,64.1,54.0,55.5,50.6,45.8,85,64,40,30.17,30.08,10,1,10,0.01
2013-6-7,58.5,54.8,52.5,56.6,54.0,50.8,99,97,77,30.09,29.80,8,1,8,1.85
2013-6-8,70.2,52.7,52.2,59.7,52.2,51.9,99,98,70,29.91,29.66,7,3,7,0.70
2013-6-9,79.2,68.8,58.8,59.8,56.0,54.5,90,66,43,30.17,30.05,4,2,4,0.00
2013-6-10,70.5,62.0,55.2,58.5,57.5,54.9,99,86,65,30.18,29.81,2,1,2,0.93
2013-6-11,60.6,57.3,54.7,58.4,56.5,54.4,99,97,90,29.75,29.54,3,2,3,0.64
2013-6-12,70.7,62.6,55.4,59.4,54.5,52.2,99,76,54,29.78,29.58,9,4,9,0.65
2013-6-13,65.7,57.5,51.6,57.4,54.7,51.3,99,91,73,29.79,29.65,4,1,4,0.63
2013-6-14,78.3,65.6,52.0,56.6,54.0,45.7,99,70,37,29.75,29.63,11,2,11,0.51
2013-6-15,79.3,67.4,55.8,53.9,45.5,32.3,82,52,23,29.91,29.75,12,3,12,0.00
2013-6-16,77.5,67.3,56.7,61.3,53.5,47.0,78,63,37,29.91,29.68,49,2,49,0.57
2013-6-17,111.9,68.6,59.7,66.3,60.7,14.9,99,80,42,29.88,29.75,14,2,14,24.59
2013-6-18,74.5,62.4,58.1,64.5,60.4,57.8,99,94,69,29.93,29.86,49,1,49,1.09
2013-6-19,78.3,64.6,55.9,58.2,51.7,36.4,99,70,27,30.12,29.89,9,2,9,0.04
2013-6-20,78.8,65.3,52.5,53.7,49.1,43.2,87,61,32,30.24,30.12,14,2,14,0.00
2013-6-22,83.8,79.2,69.8,67.2,62.6,59.0,78,58,43,30.18,30.09,8,4,8,0.00
2013-6-23,89.2,78.5,65.3,72.2,67.8,59.3,83,71,54,30.12,29.96,13,3,13,0.00
2013-6-24,91.6,80.1,70.3,72.6,69.0,62.1,96,72,44,29.99,29.85,60,3,60,0.77
2013-6-25,89.6,78.9,69.8,71.7,68.1,-30.1,96,73,48,29.91,29.69,103,2,103,0.00
2013-6-26,82.2,74.2,68.2,74.1,69.8,-10.0,97,87,65,29.83,29.70,49,1,49,0.01
2013-6-27,73.2,66.0,61.3,68.9,64.9,60.9,99,96,84,29.85,29.74,4,1,4,0.14
2013-6-28,82.6,69.4,58.3,76.7,66.9,58.0,99,93,72,29.75,29.46,16,3,16,0.28
2013-6-29,84.7,75.9,70.2,72.7,69.4,65.1,99,82,58,29.69,29.49,18,4,18,0.00
2013-6-30,87.6,77.0,67.8,73.6,70.1,67.5,99,81,55,29.91,29.69,18,3,18,0.00
2013-7-1,82.8,74.2,71.2,74.7,72.3,27.4,99,94,75,30.06,29.91,10,2,10,1.91
2013-7-2,83.1,71.8,60.6,77.4,69.6,60.3,99,93,72,30.20,30.04,100,3,100,15.87
2013-7-3,88.7,74.2,60.4,75.5,68.7,60.2,99,85,61,30.19,30.10,11,2,11,0.00
2013-7-4,92.3,82.3,72.3,75.5,73.3,71.2,99,77,54,30.18,30.06,11,3,11,0.00
2013-7-5,94.1,84.1,75.2,76.5,73.7,71.1,94,73,52,30.14,30.01,11,3,11,0.00
2013-7-6,88.9,82.0,74.5,74.7,70.1,61.6,93,70,46,30.06,29.95,13,2,13,0.00
2013-7-7,89.2,78.7,68.7,77.4,69.8,61.5,91,76,57,29.99,29.87,8,1,8,0.00
2013-7-8,86.4,76.2,65.5,75.9,72.0,65.2,99,88,63,30.05,29.88,11,1,11,0.22
2013-7-9,73.9,68.6,64.8,69.8,66.9,64.3,99,94,86,30.09,30.02,4,0,4,0.00
2013-7-10,85.6,73.4,66.0,77.3,71.3,65.7,99,94,72,30.05,29.76,14,2,14,0.11
2013-7-11,82.4,75.8,71.2,77.6,73.1,69.1,99,92,73,29.91,29.73,9,2,9,0.06
2013-7-12,79.2,71.4,66.2,69.2,61.2,54.7,98,73,49,30.18,29.91,9,2,9,0.00
2013-7-13,79.3,71.6,65.1,71.7,65.9,58.3,99,83,74,30.29,30.17,6,1,6,0.00
2013-7-14,88.9,79.0,69.8,75.1,71.9,68.7,99,81,54,30.28,30.18,7,1,7,0.00
2013-7-15,94.8,81.4,72.3,74.7,72.2,66.8,98,76,49,30.19,30.07,8,1,8,0.00
2013-7-16,92.5,81.1,70.5,71.6,68.2,63.3,88,68,43,30.15,30.09,10,2,10,0.00
2013-7-17,92.3,80.5,71.4,75.8,70.8,66.2,98,75,46,30.16,29.96,10,2,10,0.00
2013-7-18,92.5,82.3,74.3,75.6,72.2,66.9,90,74,47,30.00,29.92,10,2,10,0.00
2013-7-19,95.5,84.8,72.9,78.1,73.5,68.9,94,73,45,29.93,29.69,15,3,15,0.00
2013-7-20,92.1,83.1,73.4,77.8,71.9,63.2,89,70,53,29.79,29.63,14,2,14,0.00
2013-7-21,83.8,74.5,67.3,68.4,64.6,61.5,92,73,53,29.97,29.79,7,1,7,0.00
2013-7-22,84.2,73.3,66.6,71.9,68.1,65.6,99,85,59,30.00,29.87,5,1,5,0.00
2013-7-23,78.1,71.3,68.4,77.8,70.8,67.3,99,98,92,29.87,29.52,14,1,14,1.67
2013-7-24,85.1,75.1,63.3,74.9,67.3,52.1,99,79,54,29.95,29.56,14,2,14,0.01
2013-7-25,63.1,59.9,57.6,59.5,54.3,47.3,99,83,66,30.09,29.95,9,2,9,0.70
2013-7-26,73.6,65.0,59.2,68.5,63.3,58.9,99,94,82,30.05,29.92,13,2,13,0.17
2013-7-27,84.0,72.1,60.1,67.5,62.9,57.6,94,76,46,30.03,29.95,10,2,10,0.00
2013-7-28,84.0,71.4,65.3,72.6,67.5,63.4,99,89,66,30.00,29.93,8,1,8,0.01
2013-7-29,84.9,72.8,66.4,74.3,69.3,66.1,99,90,61,30.02,29.93,11,1,11,0.45
2013-7-30,80.1,71.3,61.7,68.4,59.7,51.9,99,71,42,30.07,30.00,11,2,11,0.00
2013-7-31,81.0,70.9,60.8,63.4,59.8,53.8,94,71,44,30.11,30.01,8,1,8,0.00
2013-8-1,82.2,69.7,62.2,67.8,64.4,62.0,99,85,56,30.02,29.84,17,2,17,0.13
2013-8-2,81.5,71.1,63.1,69.5,63.5,56.2,99,80,46,29.85,29.75,14,2,14,0.65
2013-8-3,79.5,69.6,61.9,66.6,62.9,57.6,99,81,57,29.83,29.74,8,2,15,0.01
2013-8-4,77.5,67.7,59.2,60.5,56.5,52.1,85,69,44,29.87,29.74,11,2,11,0.00
2013-8-5,74.7,64.4,55.2,54.2,47.1,32.4,89,59,25,30.02,29.85,17,3,17,0.00
2013-8-6,78.4,65.6,52.9,56.0,51.4,45.3,90,64,39,30.12,30.02,8,1,8,0.00
2013-8-7,80.1,68.2,57.2,62.6,55.5,47.1,97,69,36,30.16,30.07,13,2,13,0.00
2013-8-8,81.0,72.5,64.6,71.7,67.0,57.6,95,83,72,30.10,29.97,14,4,14,0.00
2013-8-9,75.6,72.4,70.9,75.3,71.7,69.7,99,98,94,30.00,29.71,13,3,13,0.78
2013-8-10,81.1,72.9,63.3,71.3,62.1,53.3,99,73,41,29.99,29.76,17,3,17,0.00
2013-8-11,79.0,67.7,55.9,59.4,54.5,48.7,90,67,40,30.06,29.97,9,2,9,0.00
2013-8-12,82.2,70.1,59.7,62.2,57.9,49.5,92,69,41,30.00,29.89,9,2,9,0.00
2013-8-13,75.9,68.8,64.9,70.3,65.4,62.0,97,89,73,29.89,29.65,5,1,8,0.07
2013-8-14,72.5,66.0,59.0,65.2,54.4,48.9,99,69,46,29.93,29.63,20,4,20,0.00
2013-8-15,77.0,64.3,53.4,55.0,51.3,45.0,92,67,39,30.08,29.93,11,2,11,0.00
2013-8-16,79.3,67.3,57.0,58.5,53.8,47.3,85,65,39,30.17,30.07,10,2,10,0.00
2013-8-17,80.4,68.1,57.4,62.6,57.9,53.8,90,72,47,30.26,30.16,9,1,9,0.00
2013-8-18,79.3,68.9,59.5,65.6,61.5,57.8,99,79,55,30.25,30.05,10,1,10,0.00
2013-8-19,81.0,70.6,60.1,64.1,61.1,57.3,98,74,49,30.05,29.92,8,1,8,0.00
2013-8-20,86.9,73.9,63.1,65.4,61.7,54.8,91,69,42,30.07,29.95,7,1,7,0.00
2013-8-21,88.2,75.3,64.0,67.7,63.6,59.4,90,70,43,30.12,29.99,12,1,12,0.00
2013-8-22,88.3,76.4,65.7,72.3,67.3,61.6,95,76,44,30.01,29.79,15,2,15,0.00
2013-8-23,79.3,72.1,62.6,70.1,57.6,45.4,96,65,38,30.11,29.80,12,3,12,0.00
2013-8-24,81.9,65.6,54.0,53.3,48.3,35.8,90,60,27,30.31,30.11,8,2,8,0.00
2013-8-25,82.2,68.3,54.7,58.1,52.3,42.3,93,62,30,30.34,30.16,9,2,9,0.00
2013-8-26,81.5,71.6,63.1,68.1,63.0,56.2,92,75,60,30.16,29.85,12,2,12,0.02
2013-8-27,86.4,74.8,68.4,71.3,67.6,63.9,99,80,54,29.89,29.81,8,1,8,0.00
2013-8-28,86.0,72.9,64.6,70.0,66.4,64.0,99,82,55,29.97,29.83,5,1,5,0.00
2013-8-29,68.5,64.4,61.5,66.1,62.8,59.2,99,95,90,30.07,29.93,8,1,8,0.02
2013-8-30,85.3,70.2,58.3,68.7,64.0,58.0,99,83,58,30.01,29.80,11,2,11,0.01
2013-8-31,81.0,73.6,68.5,77.1,71.6,67.3,99,94,82,29.82,29.75,12,2,12,0.31
2013-9-1,82.2,75.1,70.5,74.5,72.2,69.2,99,91,75,29.87,29.76,12,3,12,0.00
2013-9-2,78.6,74.1,71.6,77.3,73.4,71.3,99,98,91,29.85,29.69,8,2,8,0.12
2013-9-3,80.8,72.7,63.1,71.8,68.0,57.8,99,86,67,29.79,29.67,11,2,11,0.00
2013-9-4,80.1,68.4,57.9,61.2,56.2,52.1,96,69,42,29.90,29.78,13,2,13,0.00
2013-9-5,69.6,63.1,51.8,62.1,50.9,37.1,97,69,34,30.13,29.83,11,2,11,0.06
2013-9-6,72.0,57.1,45.5,46.1,41.2,32.3,88,61,30,30.22,30.06,7,2,7,0.00
2013-9-7,78.4,63.5,49.3,58.8,50.6,43.5,89,67,34,30.06,29.82,11,2,11,0.00
2013-9-8,76.6,63.6,50.9,61.3,50.5,35.5,90,66,35,30.08,29.73,84,3,84,0.00
2013-9-9,70.0,57.8,45.5,50.1,43.2,33.2,85,62,32,30.21,30.07,10,2,10,0.00
2013-9-10,75.0,65.6,54.9,71.9,62.8,49.6,99,91,81,30.13,29.99,16,3,16,0.09
2013-9-11,93.6,80.6,68.9,77.9,71.8,65.5,99,78,49,30.04,29.91,16,3,16,0.00
2013-9-12,87.4,76.6,67.1,75.2,69.9,66.8,99,81,59,29.94,29.64,18,3,18,1.07
2013-9-13,77.5,67.4,59.4,70.8,64.4,54.5,99,91,74,29.74,29.55,12,2,12,0.14
2013-9-14,65.3,58.0,52.2,54.4,53.0,49.9,93,84,67,30.03,29.74,12,3,12,0.00
2013-9-15,70.3,59.0,48.7,52.9,49.5,43.0,99,75,40,30.14,30.01,10,2,10,0.00
2013-9-16,66.6,57.8,47.1,57.8,50.0,36.8,93,76,56,30.23,29.97,11,2,11,0.01
2013-9-17,63.0,50.8,38.7,44.0,38.7,33.8,93,67,40,30.40,30.23,10,2,10,0.00
2013-9-18,72.0,57.8,44.6,49.1,43.6,29.5,95,66,26,30.30,30.11,8,1,8,0.00
2013-9-19,76.5,62.5,50.4,56.3,50.9,45.3,90,69,38,30.11,30.00,7,1,7,0.00
2013-9-20,78.1,64.0,52.5,59.7,54.6,49.6,99,76,41,30.07,29.97,8,1,8,0.00
2013-9-21,74.5,64.0,53.6,66.6,59.8,53.3,99,88,66,30.00,29.69,17,4,17,0.00
2013-9-22,69.6,63.4,52.3,68.2,57.0,44.0,99,82,53,29.81,29.57,17,4,17,0.48
2013-9-23,60.8,52.0,45.3,44.0,41.4,39.0,84,69,52,29.98,29.80,14,4,14,0.00
2013-9-24,65.3,52.9,41.9,44.7,41.3,36.5,93,68,37,29.96,29.79,18,3,18,0.00
2013-9-25,66.4,55.3,46.8,52.5,47.5,43.3,89,76,56,29.96,29.85,11,1,11,0.00
2013-9-26,65.1,57.5,52.5,51.7,48.9,45.2,89,75,52,30.11,29.96,9,1,9,0.00
2013-9-27,65.3,58.6,54.1,54.6,52.6,50.8,93,81,67,30.24,30.11,8,1,8,0.00
2013-9-28,72.0,59.0,49.8,58.0,52.6,35.3,99,82,52,30.31,30.23,6,1,6,0.00
2013-9-29,66.7,54.9,33.1,58.0,48.7,32.8,99,84,39,30.24,30.10,5,1,5,6.05
2013-9-30,67.5,54.8,45.7,56.2,49.9,45.4,99,86,53,30.11,29.93,6,1,6,0.00
2013-10-1,74.5,60.9,48.0,58.0,51.9,45.9,99,77,41,29.94,29.82,13,2,13,0.00
2013-10-2,78.3,66.9,56.8,61.7,57.6,-10.7,91,74,51,29.93,29.80,14,2,14,0.00
2013-10-3,74.7,63.5,54.0,56.8,51.8,41.6,92,70,35,30.06,29.92,8,1,8,0.00
2013-10-4,60.6,57.2,54.9,58.8,54.4,49.5,99,91,73,30.07,30.01,5,1,5,0.30
2013-10-5,67.6,60.8,55.6,61.3,57.9,53.0,99,91,72,30.10,30.03,5,0,5,0.20
2013-10-6,59.4,55.2,52.3,57.3,54.8,52.1,99,99,93,30.22,30.09,7,1,7,0.41
2013-10-7,76.8,64.0,55.2,72.7,62.1,54.9,99,94,76,30.11,29.76,25,3,25,0.17
2013-10-8,63.5,55.5,45.9,57.4,44.8,34.8,97,71,38,30.35,29.87,14,2,14,0.00
2013-10-9,61.7,49.7,39.9,47.8,43.4,39.1,98,81,53,30.45,30.34,8,1,8,0.00
2013-10-10,63.0,51.0,42.4,53.1,48.2,42.2,99,91,71,30.34,30.15,5,1,5,0.00
2013-10-11,69.6,56.7,47.7,55.0,45.9,22.8,99,74,22,30.16,30.06,6,1,6,0.00
2013-10-12,56.7,53.1,47.8,56.2,52.4,47.5,99,98,81,30.37,30.13,10,2,10,0.00
2013-10-13,59.0,50.5,43.7,53.6,47.4,43.4,99,90,71,30.42,30.35,6,1,6,0.01
2013-10-14,63.5,50.7,37.6,53.2,43.1,37.3,99,79,44,30.37,30.21,7,1,7,0.00
2013-10-15,64.0,56.1,50.5,55.0,51.6,46.8,99,86,70,30.24,30.14,6,1,6,0.00
2013-10-16,60.4,54.9,50.9,56.6,52.6,50.6,99,93,74,30.16,29.88,4,1,4,0.00
2013-10-17,72.7,60.2,49.6,62.6,54.6,49.4,99,84,50,29.89,29.68,12,2,12,0.00
2013-10-18,65.5,59.7,50.2,60.7,50.0,4.1,99,74,46,29.88,29.57,21,4,21,0.07
2013-10-19,66.7,55.0,44.2,47.3,41.7,37.1,86,64,37,29.93,29.71,11,2,11,0.00
2013-10-20,59.9,52.7,43.5,50.3,38.6,27.7,97,63,34,29.98,29.65,15,3,15,0.00
2013-10-21,65.3,51.6,39.7,42.2,38.2,34.6,89,64,36,30.08,29.96,12,2,12,0.00
2013-10-22,64.0,53.0,45.3,53.3,45.5,36.8,98,77,58,29.96,29.67,17,3,17,0.00
2013-10-23,51.1,45.4,37.9,37.2,34.0,30.1,86,66,47,29.77,29.55,8,1,8,0.00
2013-10-24,52.3,44.4,36.1,35.4,28.4,19.1,84,57,32,29.85,29.61,16,3,16,0.00
2013-10-25,48.0,41.1,33.8,35.3,28.1,22.4,93,63,39,30.11,29.85,15,3,15,0.00
2013-10-26,54.3,43.4,32.2,35.8,28.4,18.0,91,61,27,30.11,29.83,17,3,17,0.00
2013-10-27,53.2,46.9,39.0,38.8,32.3,23.5,85,60,34,30.02,29.76,14,4,14,0.00
2013-10-28,56.7,44.1,35.2,34.0,29.3,22.5,84,59,30,30.32,30.02,17,3,17,0.00
2013-10-29,46.6,36.9,28.4,31.1,21.6,9.4,83,58,25,30.42,30.31,8,2,8,0.00
2013-10-30,50.4,39.8,32.4,40.8,34.1,27.4,95,80,67,30.33,30.16,4,1,4,0.02
2013-10-31,59.9,47.2,32.9,59.6,46.6,32.7,99,98,95,30.21,29.75,14,2,14,0.18
2013-11-1,68.7,63.2,54.3,64.5,58.2,50.9,99,85,65,29.75,29.40,28,6,28,0.02
2013-11-2,65.8,55.0,46.4,52.3,43.9,7.2,94,71,37,29.70,29.56,50,2,50,0.00
2013-11-3,87.8,40.4,30.0,47.2,25.3,6.4,91,60,26,30.39,29.70,13,4,13,0.43
2013-11-4,42.1,32.4,25.0,20.3,14.6,5.7,72,52,26,30.67,30.38,9,2,9,0.00
2013-11-5,50.0,37.4,26.4,33.4,25.3,19.1,82,64,40,30.68,30.47,11,2,11,0.00
2013-11-6,60.4,49.5,38.7,48.9,40.4,32.7,88,73,48,30.48,30.00,21,4,21,0.00
2013-11-7,63.7,53.3,40.1,58.5,49.5,27.2,98,87,61,30.01,29.64,15,4,15,0.12
2013-11-8,47.5,38.8,30.9,32.7,24.6,18.3,76,58,44,30.06,29.78,21,4,21,0.00
2013-11-9,44.2,37.5,29.1,27.9,21.6,14.6,73,55,33,30.18,29.99,16,3,16,0.00
2013-11-10,53.2,44.3,38.1,44.2,34.7,27.3,98,71,53,29.99,29.70,14,3,14,0.05
2013-11-11,51.4,44.1,37.4,30.8,25.4,18.9,64,50,31,30.07,29.81,17,4,17,0.00
2013-11-12,47.5,34.6,26.1,39.1,22.3,13.1,97,62,48,30.15,29.85,11,3,15,0.09
2013-11-13,35.4,27.6,22.1,15.0,11.3,4.0,71,52,29,30.25,30.10,14,4,14,0.00
2013-11-14,51.1,38.2,26.2,21.1,17.2,10.9,63,46,25,30.11,30.00,15,3,15,0.00
2013-11-15,61.0,45.2,33.3,27.5,13.3,-6.0,58,34,10,30.16,30.06,13,2,13,0.00
2013-11-16,59.5,46.9,39.4,28.7,23.5,10.2,60,44,18,30.29,30.14,7,2,7,0.00
2013-11-17,47.8,41.2,33.8,45.6,36.4,25.7,99,84,61,30.29,29.81,4,1,4,0.02
2013-11-18,64.4,56.4,45.7,61.1,44.9,27.3,99,70,39,29.81,29.49,22,5,22,0.18
2013-11-19,48.4,38.4,29.8,28.3,19.2,13.7,57,47,35,30.24,29.62,24,8,24,0.00
2013-11-20,40.6,31.7,26.6,14.3,11.0,3.8,57,45,25,30.60,30.24,18,4,18,0.00
2013-11-21,47.1,34.5,23.2,27.1,17.5,4.4,69,53,20,30.60,30.33,11,2,11,0.00
2013-11-22,44.1,41.5,36.9,43.8,39.5,27.0,99,93,67,30.33,29.78,8,1,8,0.19
2013-11-23,46.4,38.3,28.0,46.0,25.2,3.6,99,62,30,29.89,29.74,20,6,20,0.00
2013-11-24,28.6,23.0,18.5,13.1,-2.8,-18.3,60,35,16,30.15,29.75,30,10,30,0.00
2013-11-25,32.7,23.5,14.4,12.1,-5.8,-28.8,48,31,10,30.32,30.15,15,5,15,0.00
2013-11-26,37.6,33.2,29.3,32.8,20.9,10.3,98,63,43,30.30,30.01,10,2,10,0.13
2013-11-27,61.0,48.1,33.1,60.7,47.5,32.6,99,98,83,30.02,29.19,26,6,26,1.16
2013-11-28,37.0,29.5,21.4,33.6,14.0,-1.7,89,55,28,30.39,29.41,23,7,23,0.00
2013-11-29,32.0,24.4,17.6,16.0,6.6,-12.5,77,50,19,30.70,30.38,12,2,12,0.00
2013-11-30,32.0,22.9,13.1,20.0,11.2,5.9,78,62,44,30.76,30.39,10,2,10,0.00
2013-12-1,34.5,32.0,29.3,34.3,29.2,20.0,99,90,68,30.39,29.99,6,1,6,0.53
2013-12-2,37.4,35.7,34.3,37.0,35.3,9.7,99,99,35,29.99,29.89,12,1,12,6.53
2013-12-3,48.6,37.7,31.8,45.5,34.0,9.3,99,88,35,29.92,29.82,52,2,52,0.00
2013-12-4,41.7,34.4,28.8,30.2,27.0,23.1,99,76,51,30.17,29.92,11,2,11,0.00
2013-12-5,43.7,36.0,31.3,43.4,34.3,11.1,99,94,35,30.18,29.87,51,1,51,0.01
2013-12-6,54.0,45.6,32.7,53.7,41.6,23.2,99,88,44,30.14,29.82,101,2,101,0.20
2013-12-7,38.5,31.8,25.2,34.1,26.2,16.9,99,81,52,30.41,30.05,54,3,54,0.13
2013-12-8,36.7,26.2,20.3,19.2,15.5,12.8,75,64,52,30.56,30.40,8,2,8,0.00
2013-12-9,34.3,29.9,23.5,34.1,28.2,15.4,99,94,62,30.46,29.85,6,1,6,0.08
2013-12-10,34.9,30.4,23.0,33.4,26.9,9.5,99,88,50,29.95,29.74,6,0,6,0.00
2013-12-11,31.3,24.1,18.0,18.0,14.8,10.9,84,68,45,30.16,29.95,11,0,11,0.00
2013-12-12,23.5,18.9,13.5,17.4,2.8,-10.1,82,53,24,30.23,30.00,21,2,21,0.00
2013-12-13,28.0,19.4,11.5,18.0,7.9,-3.6,79,61,50,30.36,29.93,15,4,15,0.00
2013-12-14,49.3,11.5,7.2,14.0,-0.7,-9.2,93,59,38,30.58,30.13,9,3,9,0.00
2013-12-15,45.0,21.5,15.6,30.4,19.7,14.0,98,93,34,30.14,29.41,53,4,53,0.38
2013-12-16,39.7,22.1,12.7,34.7,7.0,-6.2,86,55,26,30.16,29.69,100,7,100,48.35
2013-12-17,25.3,10.0,0.5,13.6,2.1,-8.6,92,71,45,30.24,29.92,11,2,11,4.16
2013-12-18,38.7,23.9,12.9,19.7,16.2,9.9,89,73,47,30.03,29.84,14,4,14,0.01
2013-12-19,41.5,32.2,25.5,23.8,20.2,17.7,75,63,40,30.08,29.92,17,4,17,0.26
2013-12-20,51.8,40.4,32.2,31.6,28.2,23.0,73,63,44,30.09,29.87,52,3,52,48.39
2013-12-21,55.8,46.5,39.9,46.5,39.6,30.5,95,77,63,29.92,29.82,17,4,17,0.00
2013-12-22,50.2,38.4,32.0,49.9,38.0,31.8,99,99,95,30.00,29.76,10,2,10,0.01
2013-12-23,78.8,32.5,30.7,36.6,32.3,30.3,99,99,99,30.06,29.93,9,1,9,0.54
2013-12-24,36.1,30.9,24.4,35.9,18.8,8.9,99,62,46,30.16,30.02,11,4,12,0.00
2013-12-25,24.4,17.4,11.7,10.5,0.9,-8.6,59,49,35,30.50,30.15,17,4,17,0.00
2013-12-26,28.0,21.6,-18.8,25.1,16.3,-28.2,99,81,59,30.46,30.05,8,2,8,0.00
2013-12-27,33.1,26.3,20.7,22.2,18.2,16.3,95,73,53,30.23,30.14,16,3,16,0.02
2013-12-28,45.0,32.1,21.7,26.5,22.5,17.0,90,70,44,30.18,29.95,11,3,11,0.02
2013-12-29,40.3,35.3,31.5,36.4,30.0,24.6,99,82,62,29.99,29.41,14,3,14,0.89
2013-12-30,41.2,31.5,14.9,36.4,21.7,4.4,99,71,37,30.14,29.49,22,4,22,0.01
2013-12-31,23.2,16.4,10.0,13.0,2.2,-6.3,78,54,40,30.14,29.98,12,3,12,0.00
2014-1-1,25.3,19.4,12.7,9.1,4.1,1.2,67,52,37,30.35,30.14,13,3,15,0.00
2014-1-2,18.7,9.0,-1.1,13.0,4.8,-5.4,90,82,65,30.32,29.83,18,5,18,0.00